sensor_id;sensor_type;location;lat;lon;timestamp;pressure;altitude;pressure_sealevel;temperature;humidity
64211;BME280;50528;48.514;14.394;2023-05-19T00:00:31;94437.39;;;9.62;77.55
64211;BME280;50528;48.514;14.394;2023-05-19T00:01:21;94434.96;;;9.57;77.55
64211;BME280;50528;48.514;14.394;2023-05-19T00:01:57;94433.00;;;9.52;77.66
64211;BME280;50528;48.514;14.394;2023-05-19T00:02:32;94431.84;;;9.50;77.66
64211;BME280;50528;48.514;14.394;2023-05-19T00:03:06;94432.27;;;9.51;77.78
64211;BME280;50528;48.514;14.394;2023-05-19T00:03:52;94431.85;;;9.52;77.90
64211;BME280;50528;48.514;14.394;2023-05-19T00:04:26;94432.48;;;9.51;77.92
64211;BME280;50528;48.514;14.394;2023-05-19T00:05:00;94431.59;;;9.53;77.99
64211;BME280;50528;48.514;14.394;2023-05-19T00:05:35;94431.27;;;9.53;77.85
64211;BME280;50528;48.514;14.394;2023-05-19T00:06:13;94430.69;;;9.47;77.91
64211;BME280;50528;48.514;14.394;2023-05-19T00:06:49;94430.10;;;9.48;78.03
64211;BME280;50528;48.514;14.394;2023-05-19T00:07:24;94434.12;;;9.49;77.88
64211;BME280;50528;48.514;14.394;2023-05-19T00:08:01;94430.86;;;9.46;78.10
64211;BME280;50528;48.514;14.394;2023-05-19T00:08:37;94432.97;;;9.44;78.05
64211;BME280;50528;48.514;14.394;2023-05-19T00:09:11;94431.59;;;9.42;78.13
64211;BME280;50528;48.514;14.394;2023-05-19T00:09:44;94429.66;;;9.40;78.17
64211;BME280;50528;48.514;14.394;2023-05-19T00:10:19;94430.70;;;9.40;78.29
64211;BME280;50528;48.514;14.394;2023-05-19T00:10:57;94430.03;;;9.38;78.23
64211;BME280;50528;48.514;14.394;2023-05-19T00:11:35;94430.48;;;9.39;78.21
64211;BME280;50528;48.514;14.394;2023-05-19T00:12:09;94428.53;;;9.39;78.29
64211;BME280;50528;48.514;14.394;2023-05-19T00:12:43;94429.69;;;9.41;78.35
64211;BME280;50528;48.514;14.394;2023-05-19T00:13:17;94427.77;;;9.42;78.42
64211;BME280;50528;48.514;14.394;2023-05-19T00:13:52;94427.33;;;9.39;78.32
64211;BME280;50528;48.514;14.394;2023-05-19T00:14:26;94429.38;;;9.39;78.41
64211;BME280;50528;48.514;14.394;2023-05-19T00:15:01;94425.84;;;9.38;78.44
64211;BME280;50528;48.514;14.394;2023-05-19T00:15:35;94426.48;;;9.39;78.48
64211;BME280;50528;48.514;14.394;2023-05-19T00:16:09;94424.66;;;9.44;78.46
64211;BME280;50528;48.514;14.394;2023-05-19T00:16:42;94423.69;;;9.44;78.15
64211;BME280;50528;48.514;14.394;2023-05-19T00:17:16;94422.71;;;9.39;78.24
64211;BME280;50528;48.514;14.394;2023-05-19T00:17:49;94425.23;;;9.37;78.24
64211;BME280;50528;48.514;14.394;2023-05-19T00:18:24;94422.38;;;9.36;78.35
64211;BME280;50528;48.514;14.394;2023-05-19T00:18:59;94426.20;;;9.36;78.32
64211;BME280;50528;48.514;14.394;2023-05-19T00:19:33;94424.67;;;9.36;78.39
64211;BME280;50528;48.514;14.394;2023-05-19T00:20:07;94423.67;;;9.35;78.35
64211;BME280;50528;48.514;14.394;2023-05-19T00:20:41;94424.67;;;9.43;78.19
64211;BME280;50528;48.514;14.394;2023-05-19T00:21:16;94425.36;;;9.42;78.11
64211;BME280;50528;48.514;14.394;2023-05-19T00:21:49;94428.33;;;9.39;78.11
64211;BME280;50528;48.514;14.394;2023-05-19T00:22:23;94423.45;;;9.41;78.11
64211;BME280;50528;48.514;14.394;2023-05-19T00:22:56;94423.95;;;9.40;78.13
64211;BME280;50528;48.514;14.394;2023-05-19T00:23:29;94423.92;;;9.39;78.10
64211;BME280;50528;48.514;14.394;2023-05-19T00:24:03;94423.75;;;9.37;78.08
64211;BME280;50528;48.514;14.394;2023-05-19T00:24:37;94424.74;;;9.36;78.14
64211;BME280;50528;48.514;14.394;2023-05-19T00:25:10;94424.23;;;9.35;78.30
64211;BME280;50528;48.514;14.394;2023-05-19T00:25:44;94428.42;;;9.37;78.24
64211;BME280;50528;48.514;14.394;2023-05-19T00:26:17;94427.19;;;9.35;78.17
64211;BME280;50528;48.514;14.394;2023-05-19T00:26:56;94424.63;;;9.36;78.19
64211;BME280;50528;48.514;14.394;2023-05-19T00:27:30;94425.23;;;9.37;78.22
64211;BME280;50528;48.514;14.394;2023-05-19T00:28:03;94422.55;;;9.37;78.28
64211;BME280;50528;48.514;14.394;2023-05-19T00:28:36;94425.09;;;9.35;78.30
64211;BME280;50528;48.514;14.394;2023-05-19T00:29:10;94422.64;;;9.34;78.35
64211;BME280;50528;48.514;14.394;2023-05-19T00:29:43;94423.13;;;9.33;78.34
64211;BME280;50528;48.514;14.394;2023-05-19T00:30:16;94420.67;;;9.33;78.44
64211;BME280;50528;48.514;14.394;2023-05-19T00:30:50;94419.29;;;9.34;78.32
64211;BME280;50528;48.514;14.394;2023-05-19T00:31:23;94420.91;;;9.34;78.42
64211;BME280;50528;48.514;14.394;2023-05-19T00:31:57;94418.05;;;9.38;78.09
64211;BME280;50528;48.514;14.394;2023-05-19T00:32:30;94421.27;;;9.34;78.07
64211;BME280;50528;48.514;14.394;2023-05-19T00:33:03;94419.05;;;9.33;78.12
64211;BME280;50528;48.514;14.394;2023-05-19T00:33:37;94421.00;;;9.32;78.13
64211;BME280;50528;48.514;14.394;2023-05-19T00:34:10;94417.37;;;9.32;78.10
64211;BME280;50528;48.514;14.394;2023-05-19T00:34:44;94417.57;;;9.33;77.98
64211;BME280;50528;48.514;14.394;2023-05-19T00:35:19;94415.17;;;9.31;77.93
64211;BME280;50528;48.514;14.394;2023-05-19T00:35:53;94413.80;;;9.29;77.96
64211;BME280;50528;48.514;14.394;2023-05-19T00:36:27;94413.56;;;9.30;77.80
64211;BME280;50528;48.514;14.394;2023-05-19T00:37:01;94416.35;;;9.28;77.72
64211;BME280;50528;48.514;14.394;2023-05-19T00:37:34;94414.86;;;9.27;77.70
64211;BME280;50528;48.514;14.394;2023-05-19T00:38:07;94414.00;;;9.25;77.73
64211;BME280;50528;48.514;14.394;2023-05-19T00:38:41;94412.21;;;9.30;77.66
64211;BME280;50528;48.514;14.394;2023-05-19T00:39:14;94416.18;;;9.28;77.73
64211;BME280;50528;48.514;14.394;2023-05-19T00:39:48;94415.01;;;9.29;77.85
64211;BME280;50528;48.514;14.394;2023-05-19T00:40:22;94415.61;;;9.37;77.56
64211;BME280;50528;48.514;14.394;2023-05-19T00:40:58;94412.45;;;9.30;77.74
64211;BME280;50528;48.514;14.394;2023-05-19T00:41:31;94412.88;;;9.26;77.85
64211;BME280;50528;48.514;14.394;2023-05-19T00:42:05;94411.69;;;9.24;78.02
64211;BME280;50528;48.514;14.394;2023-05-19T00:42:39;94410.00;;;9.24;78.04
64211;BME280;50528;48.514;14.394;2023-05-19T00:43:13;94413.11;;;9.25;77.97
64211;BME280;50528;48.514;14.394;2023-05-19T00:43:46;94404.71;;;9.24;77.82
64211;BME280;50528;48.514;14.394;2023-05-19T00:44:19;94412.09;;;9.26;77.80
64211;BME280;50528;48.514;14.394;2023-05-19T00:44:53;94411.77;;;9.24;77.82
64211;BME280;50528;48.514;14.394;2023-05-19T00:45:27;94410.25;;;9.23;77.89
64211;BME280;50528;48.514;14.394;2023-05-19T00:46:01;94409.66;;;9.25;77.75
64211;BME280;50528;48.514;14.394;2023-05-19T00:46:35;94409.48;;;9.26;77.71
64211;BME280;50528;48.514;14.394;2023-05-19T00:47:09;94407.74;;;9.24;77.78
64211;BME280;50528;48.514;14.394;2023-05-19T00:47:43;94409.73;;;9.29;77.38
64211;BME280;50528;48.514;14.394;2023-05-19T00:48:17;94408.80;;;9.28;77.35
64211;BME280;50528;48.514;14.394;2023-05-19T00:48:50;94409.84;;;9.24;77.40
64211;BME280;50528;48.514;14.394;2023-05-19T00:49:24;94409.16;;;9.20;77.54
64211;BME280;50528;48.514;14.394;2023-05-19T00:49:58;94408.28;;;9.22;77.50
64211;BME280;50528;48.514;14.394;2023-05-19T00:50:31;94410.45;;;9.19;77.54
64211;BME280;50528;48.514;14.394;2023-05-19T00:51:05;94410.91;;;9.15;77.61
64211;BME280;50528;48.514;14.394;2023-05-19T00:51:39;94411.40;;;9.15;77.81
64211;BME280;50528;48.514;14.394;2023-05-19T00:52:13;94408.84;;;9.14;77.84
64211;BME280;50528;48.514;14.394;2023-05-19T00:52:47;94408.70;;;9.13;77.99
64211;BME280;50528;48.514;14.394;2023-05-19T00:53:23;94410.12;;;9.15;77.80
64211;BME280;50528;48.514;14.394;2023-05-19T00:53:57;94409.23;;;9.13;77.85
64211;BME280;50528;48.514;14.394;2023-05-19T00:54:32;94410.67;;;9.11;77.89
64211;BME280;50528;48.514;14.394;2023-05-19T00:55:06;94407.12;;;9.11;77.82
64211;BME280;50528;48.514;14.394;2023-05-19T00:55:41;94408.43;;;9.10;77.96
64211;BME280;50528;48.514;14.394;2023-05-19T00:56:17;94407.95;;;9.09;78.08
64211;BME280;50528;48.514;14.394;2023-05-19T00:56:50;94408.74;;;9.08;77.98
64211;BME280;50528;48.514;14.394;2023-05-19T00:57:24;94409.89;;;9.08;78.11
64211;BME280;50528;48.514;14.394;2023-05-19T00:57:59;94411.05;;;9.08;78.19
64211;BME280;50528;48.514;14.394;2023-05-19T00:58:33;94413.02;;;9.09;78.20
64211;BME280;50528;48.514;14.394;2023-05-19T00:59:08;94409.23;;;9.09;78.25
64211;BME280;50528;48.514;14.394;2023-05-19T00:59:44;94414.36;;;9.08;78.16
64211;BME280;50528;48.514;14.394;2023-05-19T01:00:17;94408.34;;;9.10;78.22
64211;BME280;50528;48.514;14.394;2023-05-19T01:00:51;94411.98;;;9.12;78.12
64211;BME280;50528;48.514;14.394;2023-05-19T01:01:25;94413.04;;;9.14;77.94
64211;BME280;50528;48.514;14.394;2023-05-19T01:02:00;94408.73;;;9.13;77.86
64211;BME280;50528;48.514;14.394;2023-05-19T01:02:35;94407.02;;;9.09;77.96
64211;BME280;50528;48.514;14.394;2023-05-19T01:03:12;94406.86;;;9.09;77.90
64211;BME280;50528;48.514;14.394;2023-05-19T01:03:47;94407.05;;;9.10;77.91
64211;BME280;50528;48.514;14.394;2023-05-19T01:04:21;94408.32;;;9.12;77.90
64211;BME280;50528;48.514;14.394;2023-05-19T01:04:58;94409.22;;;9.10;77.92
64211;BME280;50528;48.514;14.394;2023-05-19T01:05:32;94405.77;;;9.12;77.88
64211;BME280;50528;48.514;14.394;2023-05-19T01:06:05;94404.23;;;9.08;78.07
64211;BME280;50528;48.514;14.394;2023-05-19T01:06:39;94405.00;;;9.09;78.00
64211;BME280;50528;48.514;14.394;2023-05-19T01:07:12;94405.30;;;9.08;78.12
64211;BME280;50528;48.514;14.394;2023-05-19T01:07:47;94408.69;;;9.05;78.24
64211;BME280;50528;48.514;14.394;2023-05-19T01:08:26;94405.57;;;9.03;78.20
64211;BME280;50528;48.514;14.394;2023-05-19T01:08:59;94405.82;;;9.02;78.22
64211;BME280;50528;48.514;14.394;2023-05-19T01:09:33;94405.28;;;9.03;78.41
64211;BME280;50528;48.514;14.394;2023-05-19T01:10:07;94406.42;;;9.05;78.24
64211;BME280;50528;48.514;14.394;2023-05-19T01:10:41;94406.99;;;9.05;78.35
64211;BME280;50528;48.514;14.394;2023-05-19T01:11:14;94403.67;;;9.06;78.33
64211;BME280;50528;48.514;14.394;2023-05-19T01:11:48;94403.92;;;9.06;78.26
64211;BME280;50528;48.514;14.394;2023-05-19T01:12:22;94407.28;;;9.06;78.23
64211;BME280;50528;48.514;14.394;2023-05-19T01:12:55;94409.84;;;9.03;78.32
64211;BME280;50528;48.514;14.394;2023-05-19T01:13:29;94407.10;;;9.03;78.34
64211;BME280;50528;48.514;14.394;2023-05-19T01:14:03;94403.92;;;9.02;78.48
64211;BME280;50528;48.514;14.394;2023-05-19T01:14:37;94403.55;;;9.03;78.34
64211;BME280;50528;48.514;14.394;2023-05-19T01:15:10;94404.34;;;9.05;78.37
64211;BME280;50528;48.514;14.394;2023-05-19T01:18:11;94403.23;;;8.97;78.44
64211;BME280;50528;48.514;14.394;2023-05-19T01:20:26;94402.88;;;8.94;78.59
64211;BME280;50528;48.514;14.394;2023-05-19T01:21:33;94399.66;;;8.93;78.69
64211;BME280;50528;48.514;14.394;2023-05-19T01:23:54;94399.77;;;8.83;78.74
64211;BME280;50528;48.514;14.394;2023-05-19T01:25:20;94399.02;;;8.74;78.90
64211;BME280;50528;48.514;14.394;2023-05-19T01:27:20;94400.18;;;8.75;79.02
64211;BME280;50528;48.514;14.394;2023-05-19T01:28:12;94402.17;;;8.74;79.17
64211;BME280;50528;48.514;14.394;2023-05-19T01:30:47;94403.48;;;8.70;79.18
64211;BME280;50528;48.514;14.394;2023-05-19T01:31:22;94398.30;;;8.74;79.26
64211;BME280;50528;48.514;14.394;2023-05-19T01:31:59;94399.01;;;8.76;79.30
64211;BME280;50528;48.514;14.394;2023-05-19T01:32:33;94400.28;;;8.77;79.15
64211;BME280;50528;48.514;14.394;2023-05-19T01:33:11;94399.15;;;8.74;79.16
64211;BME280;50528;48.514;14.394;2023-05-19T01:33:47;94401.67;;;8.76;79.22
64211;BME280;50528;48.514;14.394;2023-05-19T01:34:22;94402.05;;;8.77;79.35
64211;BME280;50528;48.514;14.394;2023-05-19T01:34:56;94401.23;;;8.81;79.27
64211;BME280;50528;48.514;14.394;2023-05-19T01:35:31;94401.60;;;8.81;79.19
64211;BME280;50528;48.514;14.394;2023-05-19T01:36:07;94404.50;;;8.82;79.30
64211;BME280;50528;48.514;14.394;2023-05-19T01:36:41;94403.73;;;8.81;79.26
64211;BME280;50528;48.514;14.394;2023-05-19T01:37:18;94400.48;;;8.80;79.30
64211;BME280;50528;48.514;14.394;2023-05-19T01:37:56;94401.11;;;8.81;79.29
64211;BME280;50528;48.514;14.394;2023-05-19T01:38:32;94399.30;;;8.80;79.27
64211;BME280;50528;48.514;14.394;2023-05-19T01:39:06;94401.45;;;8.80;79.32
64211;BME280;50528;48.514;14.394;2023-05-19T01:39:41;94400.34;;;8.82;79.30
64211;BME280;50528;48.514;14.394;2023-05-19T01:40:14;94397.71;;;8.83;79.24
64211;BME280;50528;48.514;14.394;2023-05-19T01:40:49;94399.54;;;8.82;79.24
64211;BME280;50528;48.514;14.394;2023-05-19T01:41:24;94398.52;;;8.83;79.31
64211;BME280;50528;48.514;14.394;2023-05-19T01:41:59;94394.88;;;8.85;79.21
64211;BME280;50528;48.514;14.394;2023-05-19T01:42:33;94396.57;;;8.86;79.24
64211;BME280;50528;48.514;14.394;2023-05-19T01:43:16;94395.11;;;8.83;79.31
64211;BME280;50528;48.514;14.394;2023-05-19T01:43:50;94395.23;;;8.82;79.40
64211;BME280;50528;48.514;14.394;2023-05-19T01:44:24;94394.73;;;8.83;79.47
64211;BME280;50528;48.514;14.394;2023-05-19T01:44:58;94392.42;;;8.85;79.35
64211;BME280;50528;48.514;14.394;2023-05-19T01:45:32;94389.77;;;8.84;79.40
64211;BME280;50528;48.514;14.394;2023-05-19T01:46:06;94391.69;;;8.86;79.44
64211;BME280;50528;48.514;14.394;2023-05-19T01:46:40;94394.19;;;8.86;79.49
64211;BME280;50528;48.514;14.394;2023-05-19T01:47:14;94392.80;;;8.87;79.55
64211;BME280;50528;48.514;14.394;2023-05-19T01:47:51;94389.34;;;8.90;79.54
64211;BME280;50528;48.514;14.394;2023-05-19T01:48:25;94386.48;;;8.87;79.49
64211;BME280;50528;48.514;14.394;2023-05-19T01:49:00;94386.52;;;8.87;79.64
64211;BME280;50528;48.514;14.394;2023-05-19T01:50:43;94384.19;;;8.83;79.54
64211;BME280;50528;48.514;14.394;2023-05-19T01:51:16;94382.70;;;8.79;79.69
64211;BME280;50528;48.514;14.394;2023-05-19T01:51:51;94383.92;;;8.85;79.56
64211;BME280;50528;48.514;14.394;2023-05-19T01:52:27;94376.80;;;8.83;79.60
64211;BME280;50528;48.514;14.394;2023-05-19T01:53:00;94379.80;;;8.85;79.60
64211;BME280;50528;48.514;14.394;2023-05-19T01:53:34;94380.00;;;8.85;79.73
64211;BME280;50528;48.514;14.394;2023-05-19T01:54:07;94377.89;;;8.87;79.70
64211;BME280;50528;48.514;14.394;2023-05-19T01:54:41;94378.27;;;8.85;79.65
64211;BME280;50528;48.514;14.394;2023-05-19T01:55:14;94374.47;;;8.86;79.66
64211;BME280;50528;48.514;14.394;2023-05-19T01:55:52;94373.15;;;8.88;79.50
64211;BME280;50528;48.514;14.394;2023-05-19T01:56:51;94376.16;;;8.86;79.49
64211;BME280;50528;48.514;14.394;2023-05-19T01:58:49;94372.48;;;8.72;79.54
64211;BME280;50528;48.514;14.394;2023-05-19T02:00:25;94370.90;;;8.69;79.82
64211;BME280;50528;48.514;14.394;2023-05-19T02:01:55;94367.17;;;8.66;79.85
64211;BME280;50528;48.514;14.394;2023-05-19T02:04:31;94368.80;;;8.56;80.02
64211;BME280;50528;48.514;14.394;2023-05-19T02:07:46;94364.60;;;8.52;80.28
64211;BME280;50528;48.514;14.394;2023-05-19T02:08:29;94365.23;;;8.50;80.34
64211;BME280;50528;48.514;14.394;2023-05-19T02:10:05;94365.26;;;8.51;80.61
64211;BME280;50528;48.514;14.394;2023-05-19T02:10:40;94366.90;;;8.52;80.67
64211;BME280;50528;48.514;14.394;2023-05-19T02:11:35;94357.55;;;8.47;80.65
64211;BME280;50528;48.514;14.394;2023-05-19T02:12:19;94367.17;;;8.53;80.76
64211;BME280;50528;48.514;14.394;2023-05-19T02:12:59;94363.23;;;8.54;80.79
64211;BME280;50528;48.514;14.394;2023-05-19T02:13:36;94359.48;;;8.55;80.74
64211;BME280;50528;48.514;14.394;2023-05-19T02:14:18;94360.55;;;8.56;80.69
64211;BME280;50528;48.514;14.394;2023-05-19T02:15:39;94359.42;;;8.56;80.74
64211;BME280;50528;48.514;14.394;2023-05-19T02:16:15;94358.89;;;8.60;80.69
64211;BME280;50528;48.514;14.394;2023-05-19T02:16:50;94356.59;;;8.62;80.54
64211;BME280;50528;48.514;14.394;2023-05-19T02:17:26;94356.15;;;8.63;80.47
64211;BME280;50528;48.514;14.394;2023-05-19T02:18:05;94357.09;;;8.65;80.23
64211;BME280;50528;48.514;14.394;2023-05-19T02:18:42;94356.20;;;8.65;80.33
64211;BME280;50528;48.514;14.394;2023-05-19T02:19:22;94353.19;;;8.66;80.35
64211;BME280;50528;48.514;14.394;2023-05-19T02:19:56;94355.23;;;8.66;80.41
64211;BME280;50528;48.514;14.394;2023-05-19T02:20:30;94356.61;;;8.67;80.36
64211;BME280;50528;48.514;14.394;2023-05-19T02:21:04;94354.66;;;8.66;80.38
64211;BME280;50528;48.514;14.394;2023-05-19T02:21:37;94354.18;;;8.69;80.38
64211;BME280;50528;48.514;14.394;2023-05-19T02:22:10;94355.73;;;8.67;80.39
64211;BME280;50528;48.514;14.394;2023-05-19T02:22:44;94356.77;;;8.67;80.50
64211;BME280;50528;48.514;14.394;2023-05-19T02:23:18;94355.00;;;8.65;80.33
64211;BME280;50528;48.514;14.394;2023-05-19T02:23:51;94356.14;;;8.65;80.42
64211;BME280;50528;48.514;14.394;2023-05-19T02:24:24;94355.02;;;8.66;80.57
64211;BME280;50528;48.514;14.394;2023-05-19T02:24:58;94357.39;;;8.67;80.42
64211;BME280;50528;48.514;14.394;2023-05-19T02:25:32;94357.35;;;8.65;80.54
64211;BME280;50528;48.514;14.394;2023-05-19T02:26:06;94358.42;;;8.68;80.49
64211;BME280;50528;48.514;14.394;2023-05-19T02:26:40;94361.07;;;8.69;80.42
64211;BME280;50528;48.514;14.394;2023-05-19T02:27:14;94358.64;;;8.70;80.26
64211;BME280;50528;48.514;14.394;2023-05-19T02:27:48;94360.36;;;8.68;80.30
64211;BME280;50528;48.514;14.394;2023-05-19T02:28:21;94358.80;;;8.67;80.45
64211;BME280;50528;48.514;14.394;2023-05-19T02:28:55;94359.84;;;8.67;80.43
64211;BME280;50528;48.514;14.394;2023-05-19T02:29:29;94360.84;;;8.66;80.44
64211;BME280;50528;48.514;14.394;2023-05-19T02:30:03;94361.52;;;8.66;80.50
64211;BME280;50528;48.514;14.394;2023-05-19T02:30:37;94360.46;;;8.63;80.50
64211;BME280;50528;48.514;14.394;2023-05-19T02:31:10;94357.03;;;8.63;80.56
64211;BME280;50528;48.514;14.394;2023-05-19T02:31:44;94359.36;;;8.64;80.49
64211;BME280;50528;48.514;14.394;2023-05-19T02:32:19;94360.69;;;8.65;80.47
64211;BME280;50528;48.514;14.394;2023-05-19T02:32:52;94358.67;;;8.61;80.42
64211;BME280;50528;48.514;14.394;2023-05-19T02:33:26;94360.11;;;8.62;80.39
64211;BME280;50528;48.514;14.394;2023-05-19T02:33:59;94363.20;;;8.63;80.38
64211;BME280;50528;48.514;14.394;2023-05-19T02:34:33;94352.00;;;8.57;80.44
64211;BME280;50528;48.514;14.394;2023-05-19T02:35:09;94361.35;;;8.63;80.47
64211;BME280;50528;48.514;14.394;2023-05-19T02:35:44;94361.34;;;8.65;80.50
64211;BME280;50528;48.514;14.394;2023-05-19T02:36:19;94362.98;;;8.66;80.43
64211;BME280;50528;48.514;14.394;2023-05-19T02:36:52;94360.85;;;8.67;80.41
64211;BME280;50528;48.514;14.394;2023-05-19T02:37:26;94361.66;;;8.70;80.44
64211;BME280;50528;48.514;14.394;2023-05-19T02:38:00;94359.58;;;8.70;80.37
64211;BME280;50528;48.514;14.394;2023-05-19T02:38:34;94361.26;;;8.73;80.36
64211;BME280;50528;48.514;14.394;2023-05-19T02:39:11;94358.36;;;8.72;80.34
64211;BME280;50528;48.514;14.394;2023-05-19T02:39:44;94357.75;;;8.73;80.32
64211;BME280;50528;48.514;14.394;2023-05-19T02:40:18;94360.08;;;8.74;80.36
64211;BME280;50528;48.514;14.394;2023-05-19T02:40:52;94359.22;;;8.75;80.44
64211;BME280;50528;48.514;14.394;2023-05-19T02:41:25;94357.08;;;8.76;80.30
64211;BME280;50528;48.514;14.394;2023-05-19T02:41:58;94357.18;;;8.79;80.19
64211;BME280;50528;48.514;14.394;2023-05-19T02:42:32;94358.55;;;8.79;80.08
64211;BME280;50528;48.514;14.394;2023-05-19T02:43:05;94357.46;;;8.79;79.92
64211;BME280;50528;48.514;14.394;2023-05-19T02:43:40;94354.30;;;8.81;79.99
64211;BME280;50528;48.514;14.394;2023-05-19T02:44:13;94356.14;;;8.83;79.87
64211;BME280;50528;48.514;14.394;2023-05-19T02:44:47;94354.66;;;8.82;79.82
64211;BME280;50528;48.514;14.394;2023-05-19T02:45:20;94353.41;;;8.81;79.81
64211;BME280;50528;48.514;14.394;2023-05-19T02:45:54;94354.42;;;8.81;79.88
64211;BME280;50528;48.514;14.394;2023-05-19T02:46:27;94355.61;;;8.79;80.00
64211;BME280;50528;48.514;14.394;2023-05-19T02:47:01;94355.69;;;8.78;80.07
64211;BME280;50528;48.514;14.394;2023-05-19T02:47:34;94350.80;;;8.80;80.16
64211;BME280;50528;48.514;14.394;2023-05-19T02:48:09;94350.56;;;8.80;80.16
64211;BME280;50528;48.514;14.394;2023-05-19T02:48:42;94350.29;;;8.83;80.03
64211;BME280;50528;48.514;14.394;2023-05-19T02:49:16;94352.58;;;8.79;80.00
64211;BME280;50528;48.514;14.394;2023-05-19T02:49:49;94354.16;;;8.77;80.09
64211;BME280;50528;48.514;14.394;2023-05-19T02:50:22;94352.11;;;8.77;80.19
64211;BME280;50528;48.514;14.394;2023-05-19T02:50:56;94350.59;;;8.75;80.03
64211;BME280;50528;48.514;14.394;2023-05-19T02:51:29;94351.02;;;8.76;80.10
64211;BME280;50528;48.514;14.394;2023-05-19T02:52:04;94347.64;;;8.76;80.08
64211;BME280;50528;48.514;14.394;2023-05-19T02:52:37;94351.09;;;8.74;80.07
64211;BME280;50528;48.514;14.394;2023-05-19T02:53:11;94349.92;;;8.71;80.20
64211;BME280;50528;48.514;14.394;2023-05-19T02:53:44;94347.91;;;8.71;80.21
64211;BME280;50528;48.514;14.394;2023-05-19T02:54:17;94346.19;;;8.71;80.24
64211;BME280;50528;48.514;14.394;2023-05-19T02:54:51;94348.61;;;8.70;80.18
64211;BME280;50528;48.514;14.394;2023-05-19T02:55:24;94347.45;;;8.69;80.27
64211;BME280;50528;48.514;14.394;2023-05-19T02:55:57;94347.64;;;8.73;80.23
64211;BME280;50528;48.514;14.394;2023-05-19T02:56:31;94344.36;;;8.71;80.29
64211;BME280;50528;48.514;14.394;2023-05-19T02:57:04;94344.88;;;8.71;80.28
64211;BME280;50528;48.514;14.394;2023-05-19T02:57:38;94344.62;;;8.69;80.32
64211;BME280;50528;48.514;14.394;2023-05-19T02:58:11;94343.83;;;8.69;80.41
64211;BME280;50528;48.514;14.394;2023-05-19T02:58:45;94342.50;;;8.73;80.37
64211;BME280;50528;48.514;14.394;2023-05-19T02:59:18;94344.64;;;8.72;80.33
64211;BME280;50528;48.514;14.394;2023-05-19T02:59:51;94341.73;;;8.69;80.47
64211;BME280;50528;48.514;14.394;2023-05-19T03:00:25;94343.83;;;8.68;80.42
64211;BME280;50528;48.514;14.394;2023-05-19T03:00:58;94343.50;;;8.66;80.41
64211;BME280;50528;48.514;14.394;2023-05-19T03:01:32;94343.44;;;8.66;80.44
64211;BME280;50528;48.514;14.394;2023-05-19T03:02:05;94341.82;;;8.67;80.58
64211;BME280;50528;48.514;14.394;2023-05-19T03:02:39;94339.59;;;8.68;80.61
64211;BME280;50528;48.514;14.394;2023-05-19T03:03:13;94342.58;;;8.69;80.53
64211;BME280;50528;48.514;14.394;2023-05-19T03:03:47;94340.25;;;8.71;80.66
64211;BME280;50528;48.514;14.394;2023-05-19T03:04:20;94337.30;;;8.72;80.58
64211;BME280;50528;48.514;14.394;2023-05-19T03:04:54;94337.85;;;8.75;80.40
64211;BME280;50528;48.514;14.394;2023-05-19T03:05:27;94336.77;;;8.74;80.32
64211;BME280;50528;48.514;14.394;2023-05-19T03:06:03;94336.17;;;8.73;80.28
64211;BME280;50528;48.514;14.394;2023-05-19T03:06:36;94341.09;;;8.73;80.31
64211;BME280;50528;48.514;14.394;2023-05-19T03:07:11;94337.61;;;8.74;80.38
64211;BME280;50528;48.514;14.394;2023-05-19T03:07:48;94337.29;;;8.74;80.35
64211;BME280;50528;48.514;14.394;2023-05-19T03:08:22;94337.25;;;8.74;80.47
64211;BME280;50528;48.514;14.394;2023-05-19T03:08:55;94333.30;;;8.74;80.49
64211;BME280;50528;48.514;14.394;2023-05-19T03:09:28;94337.05;;;8.74;80.42
64211;BME280;50528;48.514;14.394;2023-05-19T03:10:02;94337.16;;;8.75;80.46
64211;BME280;50528;48.514;14.394;2023-05-19T03:10:36;94338.85;;;8.75;80.52
64211;BME280;50528;48.514;14.394;2023-05-19T03:11:09;94337.52;;;8.76;80.46
64211;BME280;50528;48.514;14.394;2023-05-19T03:11:42;94337.64;;;8.77;80.53
64211;BME280;50528;48.514;14.394;2023-05-19T03:12:16;94335.77;;;8.78;80.60
64211;BME280;50528;48.514;14.394;2023-05-19T03:12:49;94338.63;;;8.79;80.52
64211;BME280;50528;48.514;14.394;2023-05-19T03:13:22;94339.83;;;8.81;80.53
64211;BME280;50528;48.514;14.394;2023-05-19T03:13:57;94338.19;;;8.80;80.46
64211;BME280;50528;48.514;14.394;2023-05-19T03:14:31;94338.21;;;8.81;80.45
64211;BME280;50528;48.514;14.394;2023-05-19T03:15:05;94341.64;;;8.81;80.48
64211;BME280;50528;48.514;14.394;2023-05-19T03:15:39;94342.21;;;8.80;80.41
64211;BME280;50528;48.514;14.394;2023-05-19T03:16:14;94343.41;;;8.81;80.34
64211;BME280;50528;48.514;14.394;2023-05-19T03:16:48;94341.35;;;8.81;80.39
64211;BME280;50528;48.514;14.394;2023-05-19T03:17:21;94343.24;;;8.81;80.33
64211;BME280;50528;48.514;14.394;2023-05-19T03:17:55;94343.61;;;8.82;80.36
64211;BME280;50528;48.514;14.394;2023-05-19T03:18:29;94340.83;;;8.82;80.24
64211;BME280;50528;48.514;14.394;2023-05-19T03:19:02;94341.48;;;8.83;80.29
64211;BME280;50528;48.514;14.394;2023-05-19T03:19:36;94343.48;;;8.84;80.32
64211;BME280;50528;48.514;14.394;2023-05-19T03:20:09;94341.30;;;8.85;80.30
64211;BME280;50528;48.514;14.394;2023-05-19T03:20:43;94344.96;;;8.85;80.30
64211;BME280;50528;48.514;14.394;2023-05-19T03:21:16;94343.06;;;8.83;80.24
64211;BME280;50528;48.514;14.394;2023-05-19T03:21:50;94344.48;;;8.82;80.30
64211;BME280;50528;48.514;14.394;2023-05-19T03:22:23;94341.59;;;8.83;80.39
64211;BME280;50528;48.514;14.394;2023-05-19T03:22:56;94345.10;;;8.84;80.40
64211;BME280;50528;48.514;14.394;2023-05-19T03:23:30;94346.04;;;8.83;80.44
64211;BME280;50528;48.514;14.394;2023-05-19T03:24:03;94348.24;;;8.84;80.49
64211;BME280;50528;48.514;14.394;2023-05-19T03:24:37;94346.56;;;8.83;80.54
64211;BME280;50528;48.514;14.394;2023-05-19T03:25:12;94343.69;;;8.84;80.57